sensor_id;sensor_type;location;lat;lon;timestamp;temperature;humidity
64689;DHT22;62504;46.070;14.492;2023-10-19T00:00:46;11.50;99.90
64689;DHT22;62504;46.070;14.492;2023-10-19T00:03:14;11.50;99.90
64689;DHT22;62504;46.070;14.492;2023-10-19T00:05:40;11.40;99.90
64689;DHT22;62504;46.070;14.492;2023-10-19T00:08:10;11.40;99.90
64689;DHT22;62504;46.070;14.492;2023-10-19T00:10:48;11.50;99.90
64689;DHT22;62504;46.070;14.492;2023-10-19T00:13:20;11.50;99.90
64689;DHT22;62504;46.070;14.492;2023-10-19T00:15:47;11.50;99.90
64689;DHT22;62504;46.070;14.492;2023-10-19T00:18:20;11.50;99.90
64689;DHT22;62504;46.070;14.492;2023-10-19T00:20:49;11.50;99.90
64689;DHT22;62504;46.070;14.492;2023-10-19T00:23:23;11.50;99.90
64689;DHT22;62504;46.070;14.492;2023-10-19T00:25:58;11.50;99.90
64689;DHT22;62504;46.070;14.492;2023-10-19T00:28:26;11.50;99.90
64689;DHT22;62504;46.070;14.492;2023-10-19T00:30:53;11.50;99.90
64689;DHT22;62504;46.070;14.492;2023-10-19T00:33:20;11.60;99.90
64689;DHT22;62504;46.070;14.492;2023-10-19T00:35:54;11.60;99.90
64689;DHT22;62504;46.070;14.492;2023-10-19T00:38:47;11.60;99.90
64689;DHT22;62504;46.070;14.492;2023-10-19T00:41:23;11.60;99.90
64689;DHT22;62504;46.070;14.492;2023-10-19T00:43:56;11.60;99.90
64689;DHT22;62504;46.070;14.492;2023-10-19T00:46:37;11.50;99.90
64689;DHT22;62504;46.070;14.492;2023-10-19T00:49:09;11.50;99.90
64689;DHT22;62504;46.070;14.492;2023-10-19T00:51:40;11.50;99.90
64689;DHT22;62504;46.070;14.492;2023-10-19T00:54:26;11.50;99.90
64689;DHT22;62504;46.070;14.492;2023-10-19T00:57:00;11.40;99.90
64689;DHT22;62504;46.070;14.492;2023-10-19T00:59:41;11.50;99.90
64689;DHT22;62504;46.070;14.492;2023-10-19T01:02:20;11.50;99.90
64689;DHT22;62504;46.070;14.492;2023-10-19T01:04:51;11.60;99.90
64689;DHT22;62504;46.070;14.492;2023-10-19T01:07:46;11.60;99.90
64689;DHT22;62504;46.070;14.492;2023-10-19T01:10:12;11.60;99.90
64689;DHT22;62504;46.070;14.492;2023-10-19T01:12:44;11.60;99.90
64689;DHT22;62504;46.070;14.492;2023-10-19T01:15:18;11.60;99.90
64689;DHT22;62504;46.070;14.492;2023-10-19T01:17:52;11.50;99.90
64689;DHT22;62504;46.070;14.492;2023-10-19T01:20:24;11.60;99.90
64689;DHT22;62504;46.070;14.492;2023-10-19T01:23:07;11.60;99.90
64689;DHT22;62504;46.070;14.492;2023-10-19T01:25:46;11.50;99.90
64689;DHT22;62504;46.070;14.492;2023-10-19T01:30:54;11.40;99.90
64689;DHT22;62504;46.070;14.492;2023-10-19T01:33:21;11.50;99.90
64689;DHT22;62504;46.070;14.492;2023-10-19T01:35:47;11.50;99.90
64689;DHT22;62504;46.070;14.492;2023-10-19T01:38:32;11.50;99.90
64689;DHT22;62504;46.070;14.492;2023-10-19T01:41:02;11.60;99.90
64689;DHT22;62504;46.070;14.492;2023-10-19T01:43:31;11.60;99.90
64689;DHT22;62504;46.070;14.492;2023-10-19T01:45:58;11.50;99.90
64689;DHT22;62504;46.070;14.492;2023-10-19T01:48:30;11.50;99.90
64689;DHT22;62504;46.070;14.492;2023-10-19T01:51:04;11.50;99.90
64689;DHT22;62504;46.070;14.492;2023-10-19T01:53:33;11.60;99.90
64689;DHT22;62504;46.070;14.492;2023-10-19T01:56:02;11.60;99.90
64689;DHT22;62504;46.070;14.492;2023-10-19T01:58:31;11.60;99.90
64689;DHT22;62504;46.070;14.492;2023-10-19T02:01:05;11.60;99.90
64689;DHT22;62504;46.070;14.492;2023-10-19T02:03:40;11.60;99.90
64689;DHT22;62504;46.070;14.492;2023-10-19T02:06:08;11.60;99.90
64689;DHT22;62504;46.070;14.492;2023-10-19T02:08:49;11.50;99.90
64689;DHT22;62504;46.070;14.492;2023-10-19T02:11:19;11.60;99.90
64689;DHT22;62504;46.070;14.492;2023-10-19T02:13:46;11.60;99.90
64689;DHT22;62504;46.070;14.492;2023-10-19T02:16:13;11.60;99.90
64689;DHT22;62504;46.070;14.492;2023-10-19T02:18:42;11.60;99.90
64689;DHT22;62504;46.070;14.492;2023-10-19T02:21:08;11.60;99.90
64689;DHT22;62504;46.070;14.492;2023-10-19T02:23:38;11.70;99.90
64689;DHT22;62504;46.070;14.492;2023-10-19T02:26:03;11.70;99.90
64689;DHT22;62504;46.070;14.492;2023-10-19T02:28:30;11.70;99.90
64689;DHT22;62504;46.070;14.492;2023-10-19T02:31:03;11.70;99.90
64689;DHT22;62504;46.070;14.492;2023-10-19T02:33:49;11.70;99.90
64689;DHT22;62504;46.070;14.492;2023-10-19T02:36:27;11.70;99.90
64689;DHT22;62504;46.070;14.492;2023-10-19T02:39:00;11.70;99.90
64689;DHT22;62504;46.070;14.492;2023-10-19T02:41:27;11.70;99.90
64689;DHT22;62504;46.070;14.492;2023-10-19T02:43:53;11.70;99.90
64689;DHT22;62504;46.070;14.492;2023-10-19T02:46:34;11.70;99.90
64689;DHT22;62504;46.070;14.492;2023-10-19T02:49:03;11.70;99.90
64689;DHT22;62504;46.070;14.492;2023-10-19T02:51:30;11.60;99.90
64689;DHT22;62504;46.070;14.492;2023-10-19T02:53:56;11.60;99.90
64689;DHT22;62504;46.070;14.492;2023-10-19T02:56:26;11.70;99.90
64689;DHT22;62504;46.070;14.492;2023-10-19T02:58:52;11.70;99.90
64689;DHT22;62504;46.070;14.492;2023-10-19T03:01:20;11.70;99.90
64689;DHT22;62504;46.070;14.492;2023-10-19T03:03:53;11.70;99.90
64689;DHT22;62504;46.070;14.492;2023-10-19T03:06:23;11.70;99.90
64689;DHT22;62504;46.070;14.492;2023-10-19T03:08:49;11.70;99.90
64689;DHT22;62504;46.070;14.492;2023-10-19T03:11:26;11.70;99.90
64689;DHT22;62504;46.070;14.492;2023-10-19T03:13:53;11.70;99.90
64689;DHT22;62504;46.070;14.492;2023-10-19T03:16:19;11.70;99.90
64689;DHT22;62504;46.070;14.492;2023-10-19T03:18:46;11.70;99.90
64689;DHT22;62504;46.070;14.492;2023-10-19T03:21:12;11.70;99.90
64689;DHT22;62504;46.070;14.492;2023-10-19T03:23:37;11.70;99.90
64689;DHT22;62504;46.070;14.492;2023-10-19T03:26:04;11.70;99.90
64689;DHT22;62504;46.070;14.492;2023-10-19T03:28:48;11.70;99.90
64689;DHT22;62504;46.070;14.492;2023-10-19T03:31:14;11.80;99.90
64689;DHT22;62504;46.070;14.492;2023-10-19T03:33:46;11.70;99.90
64689;DHT22;62504;46.070;14.492;2023-10-19T03:36:31;11.70;99.90
64689;DHT22;62504;46.070;14.492;2023-10-19T03:38:58;11.60;99.90
64689;DHT22;62504;46.070;14.492;2023-10-19T03:41:32;11.60;99.90
64689;DHT22;62504;46.070;14.492;2023-10-19T03:44:01;11.50;99.90
64689;DHT22;62504;46.070;14.492;2023-10-19T03:46:27;11.60;99.90
64689;DHT22;62504;46.070;14.492;2023-10-19T03:49:03;11.60;99.90
64689;DHT22;62504;46.070;14.492;2023-10-19T03:51:38;11.70;99.90
64689;DHT22;62504;46.070;14.492;2023-10-19T03:54:24;11.70;99.90
64689;DHT22;62504;46.070;14.492;2023-10-19T03:56:51;11.80;99.90
64689;DHT22;62504;46.070;14.492;2023-10-19T03:59:22;11.80;99.90
64689;DHT22;62504;46.070;14.492;2023-10-19T04:01:48;11.80;99.90
64689;DHT22;62504;46.070;14.492;2023-10-19T04:04:14;11.80;99.90
64689;DHT22;62504;46.070;14.492;2023-10-19T04:06:42;11.80;99.90
64689;DHT22;62504;46.070;14.492;2023-10-19T04:09:13;11.80;99.90
64689;DHT22;62504;46.070;14.492;2023-10-19T04:11:43;11.80;99.90
64689;DHT22;62504;46.070;14.492;2023-10-19T04:14:15;11.80;99.90
64689;DHT22;62504;46.070;14.492;2023-10-19T04:16:41;11.90;99.90
64689;DHT22;62504;46.070;14.492;2023-10-19T04:19:10;11.90;99.90
64689;DHT22;62504;46.070;14.492;2023-10-19T04:21:37;11.90;99.90
64689;DHT22;62504;46.070;14.492;2023-10-19T04:24:07;11.80;99.90
64689;DHT22;62504;46.070;14.492;2023-10-19T04:26:37;11.70;99.90
64689;DHT22;62504;46.070;14.492;2023-10-19T04:29:04;11.70;99.90
64689;DHT22;62504;46.070;14.492;2023-10-19T04:31:37;11.70;99.90
64689;DHT22;62504;46.070;14.492;2023-10-19T04:34:03;11.70;99.90
64689;DHT22;62504;46.070;14.492;2023-10-19T04:36:33;11.70;99.90
64689;DHT22;62504;46.070;14.492;2023-10-19T04:38:59;11.80;99.90
64689;DHT22;62504;46.070;14.492;2023-10-19T04:41:25;11.70;99.90
64689;DHT22;62504;46.070;14.492;2023-10-19T04:43:54;11.70;99.90
64689;DHT22;62504;46.070;14.492;2023-10-19T04:46:20;11.70;99.90
64689;DHT22;62504;46.070;14.492;2023-10-19T04:48:46;11.70;99.90
64689;DHT22;62504;46.070;14.492;2023-10-19T04:51:12;11.70;99.90
64689;DHT22;62504;46.070;14.492;2023-10-19T04:53:38;11.70;99.90
64689;DHT22;62504;46.070;14.492;2023-10-19T04:56:07;11.80;99.90
64689;DHT22;62504;46.070;14.492;2023-10-19T04:58:35;11.80;99.90
64689;DHT22;62504;46.070;14.492;2023-10-19T05:04:22;11.70;99.90
64689;DHT22;62504;46.070;14.492;2023-10-19T05:06:49;11.80;99.90
64689;DHT22;62504;46.070;14.492;2023-10-19T05:09:15;11.80;99.90
64689;DHT22;62504;46.070;14.492;2023-10-19T05:11:41;11.80;99.90
64689;DHT22;62504;46.070;14.492;2023-10-19T05:14:06;11.80;99.90
64689;DHT22;62504;46.070;14.492;2023-10-19T05:16:32;11.80;99.90
64689;DHT22;62504;46.070;14.492;2023-10-19T05:18:58;11.80;99.90
64689;DHT22;62504;46.070;14.492;2023-10-19T05:21:23;11.80;99.90
64689;DHT22;62504;46.070;14.492;2023-10-19T05:23:49;11.80;99.90
64689;DHT22;62504;46.070;14.492;2023-10-19T05:26:14;11.80;99.90
64689;DHT22;62504;46.070;14.492;2023-10-19T05:28:40;11.80;99.90
64689;DHT22;62504;46.070;14.492;2023-10-19T05:31:08;11.80;99.90
64689;DHT22;62504;46.070;14.492;2023-10-19T05:33:34;11.90;99.90
64689;DHT22;62504;46.070;14.492;2023-10-19T05:35:59;11.90;99.90
64689;DHT22;62504;46.070;14.492;2023-10-19T05:38:26;11.90;99.90
64689;DHT22;62504;46.070;14.492;2023-10-19T05:40:52;11.90;99.90
64689;DHT22;62504;46.070;14.492;2023-10-19T05:43:18;11.90;99.90
64689;DHT22;62504;46.070;14.492;2023-10-19T05:46:18;11.90;99.90
64689;DHT22;62504;46.070;14.492;2023-10-19T05:48:46;11.90;99.90
64689;DHT22;62504;46.070;14.492;2023-10-19T05:51:13;11.90;99.90
64689;DHT22;62504;46.070;14.492;2023-10-19T05:53:40;11.90;99.90
64689;DHT22;62504;46.070;14.492;2023-10-19T05:56:07;11.80;99.90
64689;DHT22;62504;46.070;14.492;2023-10-19T05:58:32;11.80;99.90
64689;DHT22;62504;46.070;14.492;2023-10-19T06:00:59;11.80;99.90
64689;DHT22;62504;46.070;14.492;2023-10-19T06:03:24;11.80;99.90
64689;DHT22;62504;46.070;14.492;2023-10-19T06:05:50;11.80;99.90
64689;DHT22;62504;46.070;14.492;2023-10-19T06:08:16;11.70;99.90
64689;DHT22;62504;46.070;14.492;2023-10-19T06:10:41;11.70;99.90
64689;DHT22;62504;46.070;14.492;2023-10-19T06:13:08;11.70;99.90
64689;DHT22;62504;46.070;14.492;2023-10-19T06:15:35;11.70;99.90
64689;DHT22;62504;46.070;14.492;2023-10-19T06:18:01;11.80;99.90
64689;DHT22;62504;46.070;14.492;2023-10-19T06:20:26;11.80;99.90
64689;DHT22;62504;46.070;14.492;2023-10-19T06:22:59;11.80;99.90
64689;DHT22;62504;46.070;14.492;2023-10-19T06:25:32;11.80;99.90
64689;DHT22;62504;46.070;14.492;2023-10-19T06:27:58;11.90;99.90
64689;DHT22;62504;46.070;14.492;2023-10-19T06:30:25;11.90;99.90
64689;DHT22;62504;46.070;14.492;2023-10-19T06:32:53;11.90;99.90
64689;DHT22;62504;46.070;14.492;2023-10-19T06:35:20;11.90;99.90
64689;DHT22;62504;46.070;14.492;2023-10-19T06:37:46;11.90;99.90
64689;DHT22;62504;46.070;14.492;2023-10-19T06:40:13;12.00;99.90
64689;DHT22;62504;46.070;14.492;2023-10-19T06:42:41;12.00;99.90
64689;DHT22;62504;46.070;14.492;2023-10-19T06:45:07;12.00;99.90
64689;DHT22;62504;46.070;14.492;2023-10-19T06:47:33;12.00;99.90
64689;DHT22;62504;46.070;14.492;2023-10-19T06:50:07;12.00;99.90
64689;DHT22;62504;46.070;14.492;2023-10-19T06:52:36;12.10;99.90
64689;DHT22;62504;46.070;14.492;2023-10-19T06:55:06;12.00;99.90
64689;DHT22;62504;46.070;14.492;2023-10-19T06:57:50;12.00;99.90
64689;DHT22;62504;46.070;14.492;2023-10-19T07:00:17;12.10;99.90
64689;DHT22;62504;46.070;14.492;2023-10-19T07:02:51;12.20;99.90
64689;DHT22;62504;46.070;14.492;2023-10-19T07:05:19;12.30;99.90
64689;DHT22;62504;46.070;14.492;2023-10-19T07:07:48;12.30;99.90
64689;DHT22;62504;46.070;14.492;2023-10-19T07:10:18;12.30;99.90
64689;DHT22;62504;46.070;14.492;2023-10-19T07:12:46;12.40;99.90
64689;DHT22;62504;46.070;14.492;2023-10-19T07:15:15;12.40;99.90
64689;DHT22;62504;46.070;14.492;2023-10-19T07:17:44;12.40;99.90
64689;DHT22;62504;46.070;14.492;2023-10-19T07:20:11;12.50;99.90
64689;DHT22;62504;46.070;14.492;2023-10-19T07:22:55;12.60;99.90
64689;DHT22;62504;46.070;14.492;2023-10-19T07:25:24;12.60;99.90
64689;DHT22;62504;46.070;14.492;2023-10-19T07:27:52;12.60;99.90
64689;DHT22;62504;46.070;14.492;2023-10-19T07:30:19;12.60;99.90
64689;DHT22;62504;46.070;14.492;2023-10-19T07:32:52;12.60;99.90
64689;DHT22;62504;46.070;14.492;2023-10-19T07:35:24;12.50;99.90
64689;DHT22;62504;46.070;14.492;2023-10-19T07:37:56;12.40;99.90
64689;DHT22;62504;46.070;14.492;2023-10-19T07:40:22;12.50;99.90
64689;DHT22;62504;46.070;14.492;2023-10-19T07:42:49;12.40;99.90
64689;DHT22;62504;46.070;14.492;2023-10-19T07:45:18;12.40;99.90
64689;DHT22;62504;46.070;14.492;2023-10-19T07:47:44;12.50;99.90
64689;DHT22;62504;46.070;14.492;2023-10-19T07:50:11;12.40;99.90
64689;DHT22;62504;46.070;14.492;2023-10-19T07:52:47;12.50;99.90
64689;DHT22;62504;46.070;14.492;2023-10-19T07:55:15;12.50;99.90
64689;DHT22;62504;46.070;14.492;2023-10-19T07:57:42;12.50;99.90
64689;DHT22;62504;46.070;14.492;2023-10-19T08:00:08;12.50;99.90
64689;DHT22;62504;46.070;14.492;2023-10-19T08:02:35;12.50;99.90
64689;DHT22;62504;46.070;14.492;2023-10-19T08:05:01;12.50;99.90
64689;DHT22;62504;46.070;14.492;2023-10-19T08:07:28;12.60;99.90
64689;DHT22;62504;46.070;14.492;2023-10-19T08:09:54;12.70;99.90
64689;DHT22;62504;46.070;14.492;2023-10-19T08:12:20;12.80;99.90
64689;DHT22;62504;46.070;14.492;2023-10-19T08:14:48;12.70;99.90
64689;DHT22;62504;46.070;14.492;2023-10-19T08:17:14;12.70;99.90
64689;DHT22;62504;46.070;14.492;2023-10-19T08:19:40;12.70;99.90
64689;DHT22;62504;46.070;14.492;2023-10-19T08:22:06;12.80;99.90
64689;DHT22;62504;46.070;14.492;2023-10-19T08:24:33;12.80;99.90
64689;DHT22;62504;46.070;14.492;2023-10-19T08:27:01;12.80;99.90
64689;DHT22;62504;46.070;14.492;2023-10-19T08:29:26;12.80;99.90
64689;DHT22;62504;46.070;14.492;2023-10-19T08:31:52;12.80;99.90
64689;DHT22;62504;46.070;14.492;2023-10-19T08:34:18;12.70;99.90
64689;DHT22;62504;46.070;14.492;2023-10-19T08:36:45;12.70;99.90
64689;DHT22;62504;46.070;14.492;2023-10-19T08:39:12;12.70;99.90
64689;DHT22;62504;46.070;14.492;2023-10-19T08:41:39;12.70;99.90
64689;DHT22;62504;46.070;14.492;2023-10-19T08:44:07;12.70;99.90
64689;DHT22;62504;46.070;14.492;2023-10-19T08:46:45;12.70;99.90
64689;DHT22;62504;46.070;14.492;2023-10-19T08:49:14;12.50;99.90
64689;DHT22;62504;46.070;14.492;2023-10-19T08:51:44;12.60;99.90
64689;DHT22;62504;46.070;14.492;2023-10-19T08:54:11;12.60;99.90
64689;DHT22;62504;46.070;14.492;2023-10-19T08:56:38;12.40;99.90
64689;DHT22;62504;46.070;14.492;2023-10-19T08:59:04;12.50;99.90
64689;DHT22;62504;46.070;14.492;2023-10-19T09:01:31;12.50;99.90
64689;DHT22;62504;46.070;14.492;2023-10-19T09:04:00;12.50;99.90
64689;DHT22;62504;46.070;14.492;2023-10-19T09:06:26;12.40;99.90
64689;DHT22;62504;46.070;14.492;2023-10-19T09:08:55;12.40;99.90
64689;DHT22;62504;46.070;14.492;2023-10-19T09:11:20;12.50;99.90
64689;DHT22;62504;46.070;14.492;2023-10-19T09:13:49;12.50;99.90
64689;DHT22;62504;46.070;14.492;2023-10-19T09:16:22;12.60;99.90
64689;DHT22;62504;46.070;14.492;2023-10-19T09:18:50;12.60;99.90
64689;DHT22;62504;46.070;14.492;2023-10-19T09:21:20;12.60;99.90
64689;DHT22;62504;46.070;14.492;2023-10-19T09:23:52;12.50;99.90
64689;DHT22;62504;46.070;14.492;2023-10-19T09:26:20;12.60;99.90
64689;DHT22;62504;46.070;14.492;2023-10-19T09:28:51;12.70;99.90
64689;DHT22;62504;46.070;14.492;2023-10-19T09:31:18;12.70;99.90
64689;DHT22;62504;46.070;14.492;2023-10-19T09:33:46;12.70;99.90
64689;DHT22;62504;46.070;14.492;2023-10-19T09:36:13;12.60;99.90
64689;DHT22;62504;46.070;14.492;2023-10-19T09:38:50;12.70;99.90
64689;DHT22;62504;46.070;14.492;2023-10-19T09:41:20;12.70;99.90
64689;DHT22;62504;46.070;14.492;2023-10-19T09:43:48;12.80;99.90
64689;DHT22;62504;46.070;14.492;2023-10-19T09:46:29;12.80;99.90
64689;DHT22;62504;46.070;14.492;2023-10-19T09:48:57;12.70;99.90
64689;DHT22;62504;46.070;14.492;2023-10-19T09:51:23;12.90;99.90
64689;DHT22;62504;46.070;14.492;2023-10-19T09:54:00;12.90;99.90
64689;DHT22;62504;46.070;14.492;2023-10-19T09:56:36;13.00;99.90
64689;DHT22;62504;46.070;14.492;2023-10-19T09:59:06;13.00;99.90
64689;DHT22;62504;46.070;14.492;2023-10-19T10:02:08;13.10;99.90
64689;DHT22;62504;46.070;14.492;2023-10-19T10:04:34;13.10;99.90
64689;DHT22;62504;46.070;14.492;2023-10-19T10:07:07;13.10;99.90
64689;DHT22;62504;46.070;14.492;2023-10-19T10:09:41;13.20;99.90
64689;DHT22;62504;46.070;14.492;2023-10-19T10:12:23;13.20;99.90
64689;DHT22;62504;46.070;14.492;2023-10-19T10:15:05;13.20;99.90
64689;DHT22;62504;46.070;14.492;2023-10-19T10:17:38;13.20;99.90
64689;DHT22;62504;46.070;14.492;2023-10-19T10:22:42;13.20;99.90
64689;DHT22;62504;46.070;14.492;2023-10-19T10:25:25;13.30;99.90
64689;DHT22;62504;46.070;14.492;2023-10-19T10:27:51;13.30;99.90
64689;DHT22;62504;46.070;14.492;2023-10-19T10:30:17;13.40;99.90
64689;DHT22;62504;46.070;14.492;2023-10-19T10:32:44;13.50;99.90
64689;DHT22;62504;46.070;14.492;2023-10-19T10:35:10;13.60;99.90
64689;DHT22;62504;46.070;14.492;2023-10-19T10:37:56;13.60;99.90
64689;DHT22;62504;46.070;14.492;2023-10-19T10:40:21;13.60;99.90
64689;DHT22;62504;46.070;14.492;2023-10-19T10:42:48;13.60;99.90
64689;DHT22;62504;46.070;14.492;2023-10-19T10:45:20;13.70;99.90
64689;DHT22;62504;46.070;14.492;2023-10-19T10:47:46;13.70;99.90
64689;DHT22;62504;46.070;14.492;2023-10-19T10:50:19;13.70;99.90
64689;DHT22;62504;46.070;14.492;2023-10-19T10:52:45;13.70;99.90
64689;DHT22;62504;46.070;14.492;2023-10-19T10:55:12;13.70;99.90
64689;DHT22;62504;46.070;14.492;2023-10-19T10:57:39;13.70;99.90
64689;DHT22;62504;46.070;14.492;2023-10-19T11:00:10;13.70;99.90
64689;DHT22;62504;46.070;14.492;2023-10-19T11:02:41;13.70;99.90
64689;DHT22;62504;46.070;14.492;2023-10-19T11:05:16;13.80;99.90
64689;DHT22;62504;46.070;14.492;2023-10-19T11:08:04;13.80;99.90
64689;DHT22;62504;46.070;14.492;2023-10-19T11:10:31;13.90;99.90
64689;DHT22;62504;46.070;14.492;2023-10-19T11:13:10;14.10;99.90
64689;DHT22;62504;46.070;14.492;2023-10-19T11:15:37;14.10;99.90
64689;DHT22;62504;46.070;14.492;2023-10-19T11:18:06;14.20;99.90
64689;DHT22;62504;46.070;14.492;2023-10-19T11:20:35;14.20;99.90
64689;DHT22;62504;46.070;14.492;2023-10-19T11:23:01;14.20;99.90
64689;DHT22;62504;46.070;14.492;2023-10-19T11:25:28;14.20;99.90
64689;DHT22;62504;46.070;14.492;2023-10-19T11:27:56;14.30;99.90
64689;DHT22;62504;46.070;14.492;2023-10-19T11:30:32;14.30;99.90
64689;DHT22;62504;46.070;14.492;2023-10-19T11:32:58;14.30;99.90
64689;DHT22;62504;46.070;14.492;2023-10-19T11:35:29;14.20;99.90
64689;DHT22;62504;46.070;14.492;2023-10-19T11:37:59;14.10;99.90
64689;DHT22;62504;46.070;14.492;2023-10-19T11:40:26;14.20;99.90
64689;DHT22;62504;46.070;14.492;2023-10-19T11:42:53;14.10;99.90
64689;DHT22;62504;46.070;14.492;2023-10-19T11:45:22;14.10;99.90
64689;DHT22;62504;46.070;14.492;2023-10-19T11:47:49;14.10;99.90
64689;DHT22;62504;46.070;14.492;2023-10-19T11:50:16;14.00;99.90
64689;DHT22;62504;46.070;14.492;2023-10-19T11:52:44;14.00;99.90
64689;DHT22;62504;46.070;14.492;2023-10-19T11:55:11;14.10;99.90
64689;DHT22;62504;46.070;14.492;2023-10-19T11:57:39;14.10;99.90
64689;DHT22;62504;46.070;14.492;2023-10-19T12:00:06;14.10;99.90
64689;DHT22;62504;46.070;14.492;2023-10-19T12:02:38;14.10;99.90
64689;DHT22;62504;46.070;14.492;2023-10-19T12:05:05;14.10;99.90
64689;DHT22;62504;46.070;14.492;2023-10-19T12:07:38;14.20;99.90
64689;DHT22;62504;46.070;14.492;2023-10-19T12:10:10;14.20;99.90
64689;DHT22;62504;46.070;14.492;2023-10-19T12:12:37;14.20;99.90
64689;DHT22;62504;46.070;14.492;2023-10-19T12:15:04;14.30;99.90
64689;DHT22;62504;46.070;14.492;2023-10-19T12:17:31;14.20;99.90
64689;DHT22;62504;46.070;14.492;2023-10-19T12:19:57;14.20;99.90
64689;DHT22;62504;46.070;14.492;2023-10-19T12:22:23;14.30;99.90
64689;DHT22;62504;46.070;14.492;2023-10-19T12:24:49;14.30;99.90
64689;DHT22;62504;46.070;14.492;2023-10-19T12:27:17;14.40;99.90
64689;DHT22;62504;46.070;14.492;2023-10-19T12:29:43;14.30;99.90
64689;DHT22;62504;46.070;14.492;2023-10-19T12:32:09;14.30;99.90
64689;DHT22;62504;46.070;14.492;2023-10-19T12:34:35;14.30;99.90
64689;DHT22;62504;46.070;14.492;2023-10-19T12:37:00;14.20;99.90
64689;DHT22;62504;46.070;14.492;2023-10-19T12:39:27;14.20;99.90
64689;DHT22;62504;46.070;14.492;2023-10-19T12:42:10;14.20;99.90
64689;DHT22;62504;46.070;14.492;2023-10-19T12:44:36;14.20;99.90
64689;DHT22;62504;46.070;14.492;2023-10-19T12:47:05;14.20;99.90
64689;DHT22;62504;46.070;14.492;2023-10-19T12:49:36;14.20;99.90
64689;DHT22;62504;46.070;14.492;2023-10-19T12:52:02;14.20;99.90
64689;DHT22;62504;46.070;14.492;2023-10-19T12:54:33;14.30;99.90
64689;DHT22;62504;46.070;14.492;2023-10-19T12:57:00;14.30;99.90
64689;DHT22;62504;46.070;14.492;2023-10-19T12:59:26;14.30;99.90
64689;DHT22;62504;46.070;14.492;2023-10-19T13:01:51;14.20;99.90
64689;DHT22;62504;46.070;14.492;2023-10-19T13:04:23;14.20;99.90
64689;DHT22;62504;46.070;14.492;2023-10-19T13:06:50;14.20;99.90
64689;DHT22;62504;46.070;14.492;2023-10-19T13:09:17;14.20;99.90
64689;DHT22;62504;46.070;14.492;2023-10-19T13:11:48;14.30;99.90
64689;DHT22;62504;46.070;14.492;2023-10-19T13:14:17;14.30;99.90
64689;DHT22;62504;46.070;14.492;2023-10-19T13:16:43;14.40;99.90
64689;DHT22;62504;46.070;14.492;2023-10-19T13:19:09;14.40;99.90
64689;DHT22;62504;46.070;14.492;2023-10-19T13:21:39;14.50;99.90
64689;DHT22;62504;46.070;14.492;2023-10-19T13:24:08;14.50;99.90
64689;DHT22;62504;46.070;14.492;2023-10-19T13:26:34;14.50;99.90
64689;DHT22;62504;46.070;14.492;2023-10-19T13:29:00;14.60;99.90
64689;DHT22;62504;46.070;14.492;2023-10-19T13:31:25;14.60;99.90
64689;DHT22;62504;46.070;14.492;2023-10-19T13:33:52;14.70;99.90
64689;DHT22;62504;46.070;14.492;2023-10-19T13:36:18;14.70;99.90
64689;DHT22;62504;46.070;14.492;2023-10-19T13:38:45;14.80;99.90
64689;DHT22;62504;46.070;14.492;2023-10-19T13:41:11;14.90;99.90
64689;DHT22;62504;46.070;14.492;2023-10-19T13:43:38;14.90;99.90
64689;DHT22;62504;46.070;14.492;2023-10-19T13:46:04;14.80;99.90
64689;DHT22;62504;46.070;14.492;2023-10-19T13:48:30;14.80;99.90
64689;DHT22;62504;46.070;14.492;2023-10-19T13:50:57;14.80;99.90
64689;DHT22;62504;46.070;14.492;2023-10-19T13:53:29;14.80;99.90
64689;DHT22;62504;46.070;14.492;2023-10-19T13:55:55;14.90;99.90
64689;DHT22;62504;46.070;14.492;2023-10-19T13:58:20;14.90;99.90
64689;DHT22;62504;46.070;14.492;2023-10-19T14:00:47;14.90;99.90
64689;DHT22;62504;46.070;14.492;2023-10-19T14:03:14;14.90;99.90
64689;DHT22;62504;46.070;14.492;2023-10-19T14:05:45;14.90;99.90
64689;DHT22;62504;46.070;14.492;2023-10-19T14:08:16;14.90;99.90
64689;DHT22;62504;46.070;14.492;2023-10-19T14:10:42;14.90;99.90
64689;DHT22;62504;46.070;14.492;2023-10-19T14:13:11;14.90;99.90
64689;DHT22;62504;46.070;14.492;2023-10-19T14:15:37;15.00;99.90
64689;DHT22;62504;46.070;14.492;2023-10-19T14:18:03;15.00;99.90
64689;DHT22;62504;46.070;14.492;2023-10-19T14:20:30;14.90;99.90
64689;DHT22;62504;46.070;14.492;2023-10-19T14:23:00;15.00;99.90
64689;DHT22;62504;46.070;14.492;2023-10-19T14:25:26;15.00;99.90
64689;DHT22;62504;46.070;14.492;2023-10-19T14:27:54;15.00;99.90
64689;DHT22;62504;46.070;14.492;2023-10-19T14:30:25;15.00;99.90
64689;DHT22;62504;46.070;14.492;2023-10-19T14:32:51;15.00;99.90
64689;DHT22;62504;46.070;14.492;2023-10-19T14:35:19;14.90;99.90
64689;DHT22;62504;46.070;14.492;2023-10-19T14:37:47;14.90;99.90
64689;DHT22;62504;46.070;14.492;2023-10-19T14:40:18;14.90;99.90
64689;DHT22;62504;46.070;14.492;2023-10-19T14:42:49;14.90;99.90
64689;DHT22;62504;46.070;14.492;2023-10-19T14:45:17;14.90;99.90
64689;DHT22;62504;46.070;14.492;2023-10-19T14:47:47;14.90;99.90
64689;DHT22;62504;46.070;14.492;2023-10-19T14:50:14;14.90;99.90
64689;DHT22;62504;46.070;14.492;2023-10-19T14:52:41;14.90;99.90
64689;DHT22;62504;46.070;14.492;2023-10-19T14:55:08;14.90;99.90
64689;DHT22;62504;46.070;14.492;2023-10-19T14:57:35;14.90;99.90
64689;DHT22;62504;46.070;14.492;2023-10-19T15:00:04;14.90;99.90
64689;DHT22;62504;46.070;14.492;2023-10-19T15:02:46;15.00;99.90
64689;DHT22;62504;46.070;14.492;2023-10-19T15:05:12;15.00;99.90
64689;DHT22;62504;46.070;14.492;2023-10-19T15:07:40;15.00;99.90
64689;DHT22;62504;46.070;14.492;2023-10-19T15:10:08;14.90;99.90
64689;DHT22;62504;46.070;14.492;2023-10-19T15:12:36;15.00;99.90
64689;DHT22;62504;46.070;14.492;2023-10-19T15:15:02;14.90;99.90
64689;DHT22;62504;46.070;14.492;2023-10-19T15:17:28;14.90;99.90
64689;DHT22;62504;46.070;14.492;2023-10-19T15:19:54;14.90;99.90
64689;DHT22;62504;46.070;14.492;2023-10-19T15:22:19;15.00;99.90
64689;DHT22;62504;46.070;14.492;2023-10-19T15:24:45;15.00;99.90
64689;DHT22;62504;46.070;14.492;2023-10-19T15:27:10;14.90;99.90
64689;DHT22;62504;46.070;14.492;2023-10-19T15:29:37;14.90;99.90
64689;DHT22;62504;46.070;14.492;2023-10-19T15:32:02;14.90;99.90
64689;DHT22;62504;46.070;14.492;2023-10-19T15:34:28;14.80;99.90
64689;DHT22;62504;46.070;14.492;2023-10-19T15:36:55;14.80;99.90